createdAt,value
2022-07-26T00:00:06.470Z,7.40
2022-07-26T00:03:29.642Z,7.30
2022-07-26T00:06:32.514Z,7.80
2022-07-26T00:09:35.484Z,6.90
2022-07-26T00:12:39.481Z,7.60
2022-07-26T00:15:42.555Z,7.20
2022-07-26T00:18:45.733Z,8.00
2022-07-26T00:21:48.710Z,7.80
2022-07-26T00:24:51.580Z,7.40
2022-07-26T00:27:55.058Z,8.10
2022-07-26T00:30:57.966Z,7.90
2022-07-26T00:34:01.008Z,9.30
2022-07-26T00:37:03.874Z,8.50
2022-07-26T00:40:07.810Z,9.00
2022-07-26T00:43:12.068Z,7.70
2022-07-26T00:46:15.008Z,8.30
2022-07-26T00:49:18.102Z,8.30
2022-07-26T00:52:21.497Z,8.50
2022-07-26T00:55:24.374Z,8.00
2022-07-26T00:58:27.135Z,7.70
2022-07-26T01:01:30.270Z,7.80
2022-07-26T01:04:33.798Z,8.00
2022-07-26T01:07:38.785Z,8.60
2022-07-26T01:10:44.594Z,8.20
2022-07-26T01:13:52.152Z,6.20
2022-07-26T01:16:55.245Z,8.20
2022-07-26T01:20:07.300Z,6.40
2022-07-26T01:23:10.108Z,6.00
2022-07-26T01:26:13.176Z,4.80
2022-07-26T01:29:16.927Z,5.50
2022-07-26T01:32:20.250Z,5.00
2022-07-26T01:35:23.223Z,4.60
2022-07-26T01:38:27.431Z,4.80
2022-07-26T01:41:38.137Z,4.80
2022-07-26T01:44:41.660Z,4.40
2022-07-26T01:47:50.266Z,3.80
2022-07-26T01:50:53.168Z,3.90
2022-07-26T01:53:56.308Z,4.30
2022-07-26T01:56:59.164Z,5.90
2022-07-26T02:00:03.135Z,4.40
2022-07-26T02:03:06.106Z,3.70
2022-07-26T02:06:09.096Z,7.70
2022-07-26T02:09:15.469Z,4.30
2022-07-26T02:12:18.339Z,5.30
2022-07-26T02:15:21.207Z,3.80
2022-07-26T02:18:24.284Z,4.00
2022-07-26T02:21:27.184Z,3.60
2022-07-26T02:24:30.254Z,3.30
2022-07-26T02:27:33.163Z,3.50
2022-07-26T02:30:36.067Z,3.40
2022-07-26T02:33:39.963Z,3.20
2022-07-26T02:36:43.039Z,3.50
2022-07-26T02:39:46.117Z,2.30
2022-07-26T02:42:48.985Z,2.50
2022-07-26T02:46:01.815Z,2.80
2022-07-26T02:49:05.548Z,5.20
2022-07-26T02:52:08.649Z,2.60
2022-07-26T02:55:11.515Z,3.40
2022-07-26T02:58:15.105Z,2.10
2022-07-26T03:01:18.019Z,2.80
2022-07-26T03:04:21.664Z,3.00
2022-07-26T03:07:24.533Z,2.80
2022-07-26T03:10:27.302Z,2.60
2022-07-26T03:13:30.170Z,2.10
2022-07-26T03:16:33.288Z,2.30
2022-07-26T03:19:36.627Z,4.00
2022-07-26T03:22:39.508Z,2.00
2022-07-26T03:25:43.290Z,2.00
2022-07-26T03:28:46.570Z,1.60
2022-07-26T03:31:49.744Z,2.80
2022-07-26T03:34:52.615Z,1.70
2022-07-26T03:37:55.691Z,1.40
2022-07-26T03:40:58.661Z,1.80
2022-07-26T03:44:01.843Z,2.20
2022-07-26T03:47:04.914Z,2.30
2022-07-26T03:50:11.129Z,3.00
2022-07-26T03:53:14.136Z,2.90
2022-07-26T03:56:28.980Z,1.90
2022-07-26T03:59:31.845Z,1.90
2022-07-26T04:02:35.073Z,1.90
2022-07-26T04:05:38.306Z,2.30
2022-07-26T04:08:41.379Z,2.20
2022-07-26T04:11:44.661Z,1.80
2022-07-26T04:14:47.529Z,1.60
2022-07-26T04:17:50.705Z,5.50
2022-07-26T04:20:53.802Z,2.10
2022-07-26T04:23:56.652Z,1.70
2022-07-26T04:26:59.727Z,3.20
2022-07-26T04:30:02.804Z,2.90
2022-07-26T04:33:06.012Z,1.80
2022-07-26T04:36:09.365Z,2.10
2022-07-26T04:39:12.232Z,1.90
2022-07-26T04:42:15.411Z,2.20
2022-07-26T04:45:19.111Z,1.80
2022-07-26T04:48:21.973Z,2.60
2022-07-26T04:51:26.785Z,1.60
2022-07-26T04:54:29.971Z,3.30
2022-07-26T04:57:33.039Z,2.10
2022-07-26T05:00:56.570Z,1.80
2022-07-26T05:04:00.886Z,2.60
2022-07-26T05:07:04.062Z,4.50
2022-07-26T05:10:13.087Z,1.80
2022-07-26T05:13:23.154Z,2.00
2022-07-26T05:16:43.970Z,3.60
2022-07-26T05:19:54.263Z,1.90
2022-07-26T05:22:59.089Z,2.60
2022-07-26T05:26:06.962Z,3.60
2022-07-26T05:29:09.995Z,2.90
2022-07-26T05:32:17.165Z,2.20
2022-07-26T05:35:20.857Z,2.50
2022-07-26T05:38:26.121Z,1.60
2022-07-26T05:41:31.915Z,2.90
2022-07-26T05:44:44.055Z,2.40
2022-07-26T05:48:24.115Z,3.20
2022-07-26T05:51:34.747Z,2.30
2022-07-26T05:54:39.376Z,2.40
2022-07-26T05:57:42.443Z,3.30
2022-07-26T06:00:48.467Z,3.50
2022-07-26T06:03:52.126Z,2.60
2022-07-26T06:06:55.761Z,3.40
2022-07-26T06:09:59.056Z,6.90
2022-07-26T06:13:02.017Z,2.80
2022-07-26T06:16:05.463Z,2.80
2022-07-26T06:19:08.471Z,5.30
2022-07-26T06:22:11.240Z,2.90
2022-07-26T06:25:14.110Z,2.70
2022-07-26T06:28:17.185Z,3.60
2022-07-26T06:31:20.553Z,2.80
2022-07-26T06:34:23.846Z,2.50
2022-07-26T06:37:26.920Z,2.40
2022-07-26T06:40:29.901Z,3.20
2022-07-26T06:43:32.765Z,3.30
2022-07-26T06:46:36.449Z,2.80
2022-07-26T06:49:40.036Z,2.60
2022-07-26T06:52:47.989Z,2.90
2022-07-26T06:55:51.820Z,2.30
2022-07-26T06:58:56.546Z,2.40
2022-07-26T07:02:02.203Z,2.60
2022-07-26T07:05:06.046Z,3.80
2022-07-26T07:08:09.025Z,2.70
2022-07-26T07:11:13.226Z,2.80
2022-07-26T07:14:16.815Z,3.90
2022-07-26T07:17:20.710Z,5.40
2022-07-26T07:20:23.788Z,4.60
2022-07-26T07:23:26.648Z,2.40
2022-07-26T07:26:29.723Z,2.50
2022-07-26T07:29:32.802Z,2.20
2022-07-26T07:32:35.920Z,2.00
2022-07-26T07:35:39.358Z,3.20
2022-07-26T07:38:42.708Z,2.80
2022-07-26T07:41:46.451Z,2.40
2022-07-26T07:44:50.346Z,2.50
2022-07-26T07:47:53.599Z,1.90
2022-07-26T07:50:56.367Z,8.30
2022-07-26T07:54:02.464Z,1.90
2022-07-26T07:57:08.088Z,3.40
2022-07-26T08:00:13.056Z,2.60
2022-07-26T08:03:19.400Z,4.50
2022-07-26T08:06:22.386Z,3.10
2022-07-26T08:09:25.869Z,3.10
2022-07-26T08:12:33.526Z,4.80
2022-07-26T08:15:39.254Z,1.30
2022-07-26T08:18:56.177Z,1.80
2022-07-26T08:22:00.887Z,3.10
2022-07-26T08:25:08.333Z,4.00
2022-07-26T08:28:30.798Z,2.10
2022-07-26T08:31:35.226Z,1.70
2022-07-26T08:34:38.152Z,1.50
2022-07-26T08:37:42.262Z,2.20
2022-07-26T08:40:45.325Z,6.30
2022-07-26T08:43:51.872Z,3.20
2022-07-26T08:46:56.722Z,1.00
2022-07-26T08:50:01.418Z,1.90
2022-07-26T08:53:09.464Z,2.30
2022-07-26T08:56:13.492Z,1.40
2022-07-26T08:59:21.289Z,1.60
2022-07-26T09:02:40.147Z,2.20
2022-07-26T09:05:43.082Z,2.80
2022-07-26T09:08:48.522Z,1.90
2022-07-26T09:11:51.784Z,4.10
2022-07-26T09:14:55.082Z,1.60
2022-07-26T09:17:58.449Z,1.90
2022-07-26T09:21:02.647Z,2.60
2022-07-26T09:24:06.234Z,2.50
2022-07-26T09:27:12.564Z,1.90
2022-07-26T09:30:15.943Z,5.00
2022-07-26T09:33:25.485Z,1.60
2022-07-26T09:36:30.199Z,1.40
2022-07-26T09:39:33.875Z,1.30
2022-07-26T09:42:37.883Z,3.40
2022-07-26T09:45:40.858Z,4.20
2022-07-26T09:49:09.275Z,4.00
2022-07-26T09:52:20.086Z,2.00
2022-07-26T09:55:23.575Z,3.00
2022-07-26T09:58:31.134Z,1.90
2022-07-26T10:01:34.234Z,1.20
2022-07-26T10:04:37.805Z,1.20
2022-07-26T10:07:40.959Z,2.50
2022-07-26T10:10:48.091Z,3.10
2022-07-26T10:13:51.509Z,2.40
2022-07-26T10:16:54.888Z,1.50
2022-07-26T10:20:01.953Z,5.30
2022-07-26T10:23:05.030Z,2.30
2022-07-26T10:26:28.572Z,2.90
2022-07-26T10:29:31.547Z,1.40
2022-07-26T10:32:35.947Z,1.50
2022-07-26T10:35:44.897Z,2.00
2022-07-26T10:38:59.597Z,4.80
2022-07-26T10:42:08.007Z,1.40
2022-07-26T10:45:21.084Z,5.30
2022-07-26T10:48:25.091Z,4.90
2022-07-26T10:51:34.413Z,1.20
2022-07-26T10:54:59.485Z,3.40
2022-07-26T10:58:03.141Z,4.70
2022-07-26T11:01:06.872Z,5.30
2022-07-26T11:04:19.969Z,2.10
2022-07-26T11:07:23.039Z,1.60
2022-07-26T11:10:27.754Z,1.40
2022-07-26T11:13:33.898Z,2.90
2022-07-26T11:16:42.092Z,3.20
2022-07-26T11:19:45.063Z,3.30
2022-07-26T11:22:48.753Z,0.70
2022-07-26T11:26:13.523Z,0.80
2022-07-26T11:29:37.276Z,0.60
2022-07-26T11:32:53.238Z,0.80
2022-07-26T11:35:56.513Z,1.00
2022-07-26T11:39:01.000Z,4.50
2022-07-26T11:42:09.315Z,1.00
2022-07-26T11:45:12.496Z,3.20
2022-07-26T11:48:15.466Z,1.60
2022-07-26T11:51:20.793Z,1.70
2022-07-26T11:54:25.903Z,5.20
2022-07-26T11:57:32.707Z,2.10
2022-07-26T12:00:36.055Z,0.60
2022-07-26T12:03:40.424Z,3.00
2022-07-26T12:06:43.437Z,0.80
2022-07-26T12:09:46.305Z,2.50
2022-07-26T12:12:49.376Z,1.30
2022-07-26T12:15:53.541Z,0.80
2022-07-26T12:18:56.652Z,0.70
2022-07-26T12:22:13.189Z,4.40
2022-07-26T12:25:25.546Z,1.10
2022-07-26T12:28:41.601Z,0.80
2022-07-26T12:31:44.891Z,0.30
2022-07-26T12:35:03.091Z,0.70
2022-07-26T12:38:06.369Z,1.50
2022-07-26T12:41:10.539Z,1.20
2022-07-26T12:44:17.628Z,0.30
2022-07-26T12:47:21.220Z,4.90
2022-07-26T12:50:27.016Z,1.60
2022-07-26T12:53:29.827Z,4.70
2022-07-26T12:56:33.883Z,0.60
2022-07-26T12:59:39.652Z,3.90
2022-07-26T13:02:48.199Z,1.20
2022-07-26T13:05:51.027Z,1.10
2022-07-26T13:08:54.013Z,1.00
2022-07-26T13:11:57.795Z,0.60
2022-07-26T13:15:00.857Z,0.70
2022-07-26T13:18:04.149Z,2.30
2022-07-26T13:21:07.321Z,3.50
2022-07-26T13:24:11.083Z,1.30
2022-07-26T13:27:16.234Z,0.60
2022-07-26T13:30:24.083Z,1.30
2022-07-26T13:36:30.492Z,0.80
2022-07-26T13:39:33.606Z,1.10
2022-07-26T13:42:38.244Z,0.90
2022-07-26T13:45:41.233Z,1.00
2022-07-26T13:49:00.041Z,2.10
2022-07-26T13:52:04.064Z,1.10
2022-07-26T13:55:07.453Z,0.90
2022-07-26T13:58:10.828Z,4.70
2022-07-26T14:01:13.956Z,0.70
2022-07-26T14:04:17.457Z,1.90
2022-07-26T14:07:20.362Z,0.80
2022-07-26T14:10:24.659Z,2.40
2022-07-26T14:13:27.733Z,1.10
2022-07-26T14:16:30.986Z,1.10
2022-07-26T14:19:34.092Z,0.70
2022-07-26T14:22:37.129Z,0.90
2022-07-26T14:25:40.047Z,0.80
2022-07-26T14:28:43.544Z,0.50
2022-07-26T14:31:46.713Z,3.10
2022-07-26T14:34:51.937Z,0.90
2022-07-26T14:37:55.002Z,1.20
2022-07-26T14:40:58.200Z,0.90
2022-07-26T14:44:04.067Z,1.30
2022-07-26T14:47:08.832Z,0.70
2022-07-26T14:50:14.890Z,0.50
2022-07-26T14:53:19.010Z,0.50
2022-07-26T14:56:22.119Z,3.10
2022-07-26T14:59:25.040Z,0.50
2022-07-26T15:02:28.025Z,2.00
2022-07-26T15:05:33.234Z,1.10
2022-07-26T15:08:36.039Z,0.80
2022-07-26T15:11:40.312Z,0.70
2022-07-26T15:14:47.712Z,1.40
2022-07-26T15:17:50.638Z,2.60
2022-07-26T15:20:53.969Z,0.70
2022-07-26T15:23:56.850Z,1.50
2022-07-26T15:26:59.635Z,1.50
2022-07-26T15:30:07.077Z,0.70
2022-07-26T15:33:15.668Z,12.70
2022-07-26T15:36:20.173Z,2.30
2022-07-26T15:39:24.017Z,4.90
2022-07-26T15:42:30.633Z,3.60
2022-07-26T15:45:41.536Z,1.40
2022-07-26T15:48:44.753Z,2.00
2022-07-26T15:51:48.054Z,2.90
2022-07-26T15:54:52.885Z,0.70
2022-07-26T15:57:56.037Z,0.50
2022-07-26T16:00:59.168Z,1.40
2022-07-26T16:04:03.863Z,1.20
2022-07-26T16:07:07.547Z,1.70
2022-07-26T16:10:12.544Z,1.00
2022-07-26T16:13:15.565Z,2.20
2022-07-26T16:16:18.592Z,0.60
2022-07-26T16:19:21.689Z,0.80
2022-07-26T16:22:24.868Z,1.10
2022-07-26T16:25:27.739Z,1.30
2022-07-26T16:28:30.919Z,0.80
2022-07-26T16:31:34.155Z,1.10
2022-07-26T16:34:38.056Z,1.30
2022-07-26T16:37:41.880Z,2.80
2022-07-26T16:40:45.163Z,1.00
2022-07-26T16:43:48.033Z,4.00
2022-07-26T16:46:52.098Z,5.10
2022-07-26T16:49:55.010Z,0.70
2022-07-26T16:52:58.175Z,0.80
2022-07-26T16:56:01.558Z,1.10
2022-07-26T16:59:10.023Z,0.80
2022-07-26T17:02:13.436Z,2.00
2022-07-26T17:05:16.371Z,3.40
2022-07-26T17:08:20.000Z,3.20
2022-07-26T17:11:23.072Z,3.60
2022-07-26T17:14:28.290Z,1.40
2022-07-26T17:17:31.374Z,1.80
2022-07-26T17:20:34.653Z,2.60
2022-07-26T17:23:39.057Z,0.90
2022-07-26T17:26:42.539Z,4.70
2022-07-26T17:29:45.614Z,4.90
2022-07-26T17:32:49.247Z,4.00
2022-07-26T17:35:52.274Z,1.60
2022-07-26T17:38:57.219Z,1.10
2022-07-26T17:42:00.487Z,0.90
2022-07-26T17:45:08.178Z,0.60
2022-07-26T17:48:11.327Z,0.80
2022-07-26T17:51:16.297Z,0.50
2022-07-26T17:54:39.381Z,0.50
2022-07-26T17:57:50.291Z,5.40
2022-07-26T18:00:55.686Z,0.50
2022-07-26T18:04:04.158Z,0.50
2022-07-26T18:07:07.134Z,0.60
2022-07-26T18:10:17.474Z,0.90
2022-07-26T18:13:21.261Z,0.50
2022-07-26T18:16:25.303Z,0.70
2022-07-26T18:19:29.985Z,0.60
2022-07-26T18:22:32.940Z,0.60
2022-07-26T18:25:39.560Z,0.90
2022-07-26T18:28:46.207Z,3.50
2022-07-26T18:31:53.034Z,0.40
2022-07-26T18:34:57.899Z,0.40
2022-07-26T18:38:07.278Z,2.50
2022-07-26T18:41:13.861Z,0.90
2022-07-26T18:44:17.255Z,0.50
2022-07-26T18:47:20.467Z,0.50
2022-07-26T18:50:26.207Z,0.50
2022-07-26T18:53:35.425Z,0.60
2022-07-26T18:56:41.041Z,0.70
2022-07-26T18:59:48.801Z,0.50
2022-07-26T19:02:54.302Z,2.20
2022-07-26T19:05:57.432Z,0.50
2022-07-26T19:09:00.816Z,2.20
2022-07-26T19:12:04.095Z,1.60
2022-07-26T19:15:08.486Z,0.60
2022-07-26T19:18:14.953Z,0.70
2022-07-26T19:21:21.054Z,0.60
2022-07-26T19:24:32.257Z,2.50
2022-07-26T19:27:35.531Z,0.50
2022-07-26T19:30:39.273Z,2.00
2022-07-26T19:33:45.171Z,0.60
2022-07-26T19:36:48.142Z,0.60
2022-07-26T19:39:56.136Z,0.70
2022-07-26T19:43:00.132Z,0.60
2022-07-26T19:46:06.551Z,0.50
2022-07-26T19:49:12.799Z,0.50
2022-07-26T19:52:19.985Z,2.50
2022-07-26T19:55:23.572Z,1.50
2022-07-26T19:58:27.095Z,2.60
2022-07-26T20:01:40.718Z,1.10
2022-07-26T20:04:46.269Z,0.60
2022-07-26T20:07:51.334Z,6.30
2022-07-26T20:10:59.516Z,4.80
2022-07-26T20:14:04.596Z,0.40
2022-07-26T20:17:11.999Z,3.50
2022-07-26T20:23:21.084Z,0.40
2022-07-26T20:26:24.564Z,0.60
2022-07-26T20:29:27.737Z,0.30
2022-07-26T20:32:30.656Z,0.60
2022-07-26T20:35:36.902Z,1.90
2022-07-26T20:38:39.983Z,0.60
2022-07-26T20:41:45.609Z,0.40
2022-07-26T20:44:52.519Z,0.60
2022-07-26T20:47:55.957Z,0.80
2022-07-26T20:50:58.928Z,0.50
2022-07-26T20:54:02.112Z,0.40
2022-07-26T20:57:11.216Z,0.50
2022-07-26T21:00:16.042Z,0.50
2022-07-26T21:03:22.466Z,0.40
2022-07-26T21:06:25.951Z,0.60
2022-07-26T21:09:32.418Z,0.50
2022-07-26T21:12:35.662Z,0.60
2022-07-26T21:15:38.774Z,0.70
2022-07-26T21:18:52.840Z,0.50
2022-07-26T21:21:57.267Z,0.40
2022-07-26T21:25:00.258Z,1.30
2022-07-26T21:28:03.193Z,0.70
2022-07-26T21:31:06.020Z,0.40
2022-07-26T21:34:09.046Z,1.00
2022-07-26T21:37:12.392Z,0.50
2022-07-26T21:40:15.556Z,4.20
2022-07-26T21:43:19.953Z,0.60
2022-07-26T21:46:22.948Z,2.50
2022-07-26T21:49:25.928Z,2.00
2022-07-26T21:52:28.864Z,0.40
2022-07-26T21:55:31.784Z,0.80
2022-07-26T21:58:36.885Z,0.60
2022-07-26T22:01:40.199Z,0.50
2022-07-26T22:04:45.714Z,1.60
2022-07-26T22:07:48.543Z,0.60
2022-07-26T22:10:51.723Z,0.40
2022-07-26T22:13:54.901Z,0.60
2022-07-26T22:16:57.811Z,0.70
2022-07-26T22:20:00.845Z,0.50
2022-07-26T22:23:07.284Z,0.60
2022-07-26T22:26:10.133Z,0.50
2022-07-26T22:29:13.155Z,0.60
2022-07-26T22:32:16.461Z,0.50
2022-07-26T22:35:19.295Z,0.50
2022-07-26T22:38:22.206Z,0.60
2022-07-26T22:41:25.001Z,0.60
2022-07-26T22:44:28.007Z,0.40
2022-07-26T22:47:31.081Z,0.70
2022-07-26T22:50:33.891Z,0.50
2022-07-26T22:53:36.608Z,0.40
2022-07-26T22:56:40.149Z,0.50
2022-07-26T22:59:42.928Z,0.60
2022-07-26T23:02:46.175Z,0.60
2022-07-26T23:05:52.416Z,0.60
2022-07-26T23:08:55.400Z,0.60
2022-07-26T23:11:59.205Z,0.50
2022-07-26T23:15:02.284Z,2.20
2022-07-26T23:18:05.092Z,0.80
2022-07-26T23:21:08.240Z,1.30
2022-07-26T23:24:11.188Z,2.30
2022-07-26T23:27:18.152Z,2.40
2022-07-26T23:30:23.854Z,0.60
2022-07-26T23:33:52.774Z,0.50
2022-07-26T23:36:50.116Z,1.10
2022-07-26T23:39:53.019Z,0.50
2022-07-26T23:42:56.604Z,0.60
2022-07-26T23:45:59.392Z,3.30
2022-07-26T23:49:04.223Z,0.90
2022-07-26T23:52:07.369Z,0.40
2022-07-26T23:55:10.856Z,0.50
2022-07-26T23:58:13.827Z,0.60
